sensor_id;sensor_type;location;lat;lon;timestamp;P1;durP1;ratioP1;P2;durP2;ratioP2
42590;SDS011;28218;53.342;-6.216;2023-09-19T00:00:40;16.50;;;2.60;;
42590;SDS011;28218;53.342;-6.216;2023-09-19T00:03:09;7.60;;;1.80;;
42590;SDS011;28218;53.342;-6.216;2023-09-19T00:05:39;17.50;;;2.70;;
42590;SDS011;28218;53.342;-6.216;2023-09-19T00:08:12;13.23;;;2.75;;
42590;SDS011;28218;53.342;-6.216;2023-09-19T00:10:41;11.82;;;2.80;;
42590;SDS011;28218;53.342;-6.216;2023-09-19T00:13:10;17.05;;;2.63;;
42590;SDS011;28218;53.342;-6.216;2023-09-19T00:15:43;14.32;;;2.67;;
42590;SDS011;28218;53.342;-6.216;2023-09-19T00:18:16;15.10;;;2.92;;
42590;SDS011;28218;53.342;-6.216;2023-09-19T00:20:48;10.95;;;2.38;;
42590;SDS011;28218;53.342;-6.216;2023-09-19T00:23:18;11.55;;;3.25;;
42590;SDS011;28218;53.342;-6.216;2023-09-19T00:25:47;12.60;;;2.60;;
42590;SDS011;28218;53.342;-6.216;2023-09-19T00:28:16;13.68;;;2.70;;
42590;SDS011;28218;53.342;-6.216;2023-09-19T00:30:48;7.50;;;1.95;;
42590;SDS011;28218;53.342;-6.216;2023-09-19T00:33:18;12.02;;;2.42;;
42590;SDS011;28218;53.342;-6.216;2023-09-19T00:35:46;10.38;;;3.10;;
42590;SDS011;28218;53.342;-6.216;2023-09-19T00:38:15;14.15;;;2.40;;
42590;SDS011;28218;53.342;-6.216;2023-09-19T00:40:44;11.93;;;1.77;;
42590;SDS011;28218;53.342;-6.216;2023-09-19T00:43:13;14.88;;;2.20;;
42590;SDS011;28218;53.342;-6.216;2023-09-19T00:45:42;17.55;;;2.15;;
42590;SDS011;28218;53.342;-6.216;2023-09-19T00:48:13;11.85;;;1.85;;
42590;SDS011;28218;53.342;-6.216;2023-09-19T00:50:42;9.73;;;2.75;;
42590;SDS011;28218;53.342;-6.216;2023-09-19T00:53:12;11.65;;;1.90;;
42590;SDS011;28218;53.342;-6.216;2023-09-19T00:55:45;13.27;;;2.38;;
42590;SDS011;28218;53.342;-6.216;2023-09-19T00:58:13;11.90;;;2.05;;
42590;SDS011;28218;53.342;-6.216;2023-09-19T01:00:42;13.20;;;2.53;;
42590;SDS011;28218;53.342;-6.216;2023-09-19T01:03:12;11.20;;;2.28;;
42590;SDS011;28218;53.342;-6.216;2023-09-19T01:05:41;13.60;;;2.05;;
42590;SDS011;28218;53.342;-6.216;2023-09-19T01:08:10;14.43;;;2.55;;
42590;SDS011;28218;53.342;-6.216;2023-09-19T01:10:39;7.03;;;2.10;;
42590;SDS011;28218;53.342;-6.216;2023-09-19T01:13:21;16.25;;;2.92;;
42590;SDS011;28218;53.342;-6.216;2023-09-19T01:15:59;17.75;;;2.95;;
42590;SDS011;28218;53.342;-6.216;2023-09-19T01:18:39;12.63;;;1.60;;
42590;SDS011;28218;53.342;-6.216;2023-09-19T01:21:15;10.70;;;1.83;;
42590;SDS011;28218;53.342;-6.216;2023-09-19T01:24:01;8.52;;;2.10;;
42590;SDS011;28218;53.342;-6.216;2023-09-19T01:26:55;9.55;;;1.95;;
42590;SDS011;28218;53.342;-6.216;2023-09-19T01:29:34;13.93;;;1.83;;
42590;SDS011;28218;53.342;-6.216;2023-09-19T01:32:09;14.88;;;2.17;;
42590;SDS011;28218;53.342;-6.216;2023-09-19T01:34:43;6.93;;;1.85;;
42590;SDS011;28218;53.342;-6.216;2023-09-19T01:37:14;6.30;;;1.33;;
42590;SDS011;28218;53.342;-6.216;2023-09-19T01:39:47;7.68;;;1.30;;
42590;SDS011;28218;53.342;-6.216;2023-09-19T01:42:20;5.93;;;1.13;;
42590;SDS011;28218;53.342;-6.216;2023-09-19T01:44:58;6.85;;;1.70;;
42590;SDS011;28218;53.342;-6.216;2023-09-19T01:47:35;4.05;;;0.98;;
42590;SDS011;28218;53.342;-6.216;2023-09-19T01:50:12;8.45;;;1.50;;
42590;SDS011;28218;53.342;-6.216;2023-09-19T01:52:47;5.55;;;1.10;;
42590;SDS011;28218;53.342;-6.216;2023-09-19T01:55:22;5.63;;;0.98;;
42590;SDS011;28218;53.342;-6.216;2023-09-19T01:57:58;7.57;;;1.67;;
42590;SDS011;28218;53.342;-6.216;2023-09-19T02:00:34;5.47;;;1.67;;
42590;SDS011;28218;53.342;-6.216;2023-09-19T02:03:07;5.78;;;1.50;;
42590;SDS011;28218;53.342;-6.216;2023-09-19T02:05:37;11.52;;;1.75;;
42590;SDS011;28218;53.342;-6.216;2023-09-19T02:08:05;9.80;;;1.45;;
42590;SDS011;28218;53.342;-6.216;2023-09-19T02:10:34;4.57;;;1.13;;
42590;SDS011;28218;53.342;-6.216;2023-09-19T02:13:02;8.10;;;1.63;;
42590;SDS011;28218;53.342;-6.216;2023-09-19T02:15:32;10.10;;;2.35;;
42590;SDS011;28218;53.342;-6.216;2023-09-19T02:18:01;10.18;;;2.13;;
42590;SDS011;28218;53.342;-6.216;2023-09-19T02:20:31;6.45;;;1.35;;
42590;SDS011;28218;53.342;-6.216;2023-09-19T02:22:59;11.60;;;1.65;;
42590;SDS011;28218;53.342;-6.216;2023-09-19T02:25:29;4.28;;;1.60;;
42590;SDS011;28218;53.342;-6.216;2023-09-19T02:27:57;2.55;;;1.30;;
42590;SDS011;28218;53.342;-6.216;2023-09-19T02:30:27;4.90;;;1.45;;
42590;SDS011;28218;53.342;-6.216;2023-09-19T02:32:56;6.28;;;1.73;;
42590;SDS011;28218;53.342;-6.216;2023-09-19T02:35:24;4.05;;;1.30;;
42590;SDS011;28218;53.342;-6.216;2023-09-19T02:37:53;9.57;;;2.35;;
42590;SDS011;28218;53.342;-6.216;2023-09-19T02:40:22;8.85;;;2.53;;
42590;SDS011;28218;53.342;-6.216;2023-09-19T02:42:52;9.15;;;2.15;;
42590;SDS011;28218;53.342;-6.216;2023-09-19T02:45:21;9.85;;;1.98;;
42590;SDS011;28218;53.342;-6.216;2023-09-19T02:47:50;9.00;;;2.20;;
42590;SDS011;28218;53.342;-6.216;2023-09-19T02:50:18;9.25;;;2.35;;
42590;SDS011;28218;53.342;-6.216;2023-09-19T02:52:47;9.98;;;2.10;;
42590;SDS011;28218;53.342;-6.216;2023-09-19T02:55:17;13.25;;;2.50;;
42590;SDS011;28218;53.342;-6.216;2023-09-19T02:57:46;6.80;;;2.53;;
42590;SDS011;28218;53.342;-6.216;2023-09-19T03:00:15;5.82;;;1.83;;
42590;SDS011;28218;53.342;-6.216;2023-09-19T03:02:48;7.22;;;2.38;;
42590;SDS011;28218;53.342;-6.216;2023-09-19T03:05:16;3.45;;;2.00;;
42590;SDS011;28218;53.342;-6.216;2023-09-19T03:07:46;11.43;;;3.75;;
42590;SDS011;28218;53.342;-6.216;2023-09-19T03:10:18;6.90;;;1.80;;
42590;SDS011;28218;53.342;-6.216;2023-09-19T03:12:47;7.53;;;2.35;;
42590;SDS011;28218;53.342;-6.216;2023-09-19T03:15:16;4.93;;;1.38;;
42590;SDS011;28218;53.342;-6.216;2023-09-19T03:17:45;5.28;;;1.92;;
42590;SDS011;28218;53.342;-6.216;2023-09-19T03:20:15;4.72;;;1.40;;
42590;SDS011;28218;53.342;-6.216;2023-09-19T03:22:44;4.47;;;1.50;;
42590;SDS011;28218;53.342;-6.216;2023-09-19T03:25:12;4.88;;;1.30;;
42590;SDS011;28218;53.342;-6.216;2023-09-19T03:27:42;5.53;;;1.10;;
42590;SDS011;28218;53.342;-6.216;2023-09-19T03:30:10;2.42;;;1.10;;
42590;SDS011;28218;53.342;-6.216;2023-09-19T03:32:43;2.03;;;1.15;;
42590;SDS011;28218;53.342;-6.216;2023-09-19T03:35:13;0.82;;;0.70;;
42590;SDS011;28218;53.342;-6.216;2023-09-19T03:37:41;2.22;;;0.85;;
42590;SDS011;28218;53.342;-6.216;2023-09-19T03:40:11;1.73;;;0.70;;
42590;SDS011;28218;53.342;-6.216;2023-09-19T03:42:39;1.30;;;0.70;;
42590;SDS011;28218;53.342;-6.216;2023-09-19T03:45:09;0.85;;;0.70;;
42590;SDS011;28218;53.342;-6.216;2023-09-19T03:47:39;1.67;;;0.90;;
42590;SDS011;28218;53.342;-6.216;2023-09-19T03:50:08;2.30;;;0.90;;
42590;SDS011;28218;53.342;-6.216;2023-09-19T03:52:37;2.15;;;1.00;;
42590;SDS011;28218;53.342;-6.216;2023-09-19T03:55:06;2.00;;;0.77;;
42590;SDS011;28218;53.342;-6.216;2023-09-19T03:57:36;4.78;;;1.45;;
42590;SDS011;28218;53.342;-6.216;2023-09-19T04:00:05;1.35;;;0.65;;
42590;SDS011;28218;53.342;-6.216;2023-09-19T04:02:40;3.83;;;0.98;;
42590;SDS011;28218;53.342;-6.216;2023-09-19T04:05:08;1.60;;;0.93;;
42590;SDS011;28218;53.342;-6.216;2023-09-19T04:07:37;5.95;;;1.25;;
42590;SDS011;28218;53.342;-6.216;2023-09-19T04:10:06;3.15;;;1.40;;
42590;SDS011;28218;53.342;-6.216;2023-09-19T04:12:38;4.57;;;1.10;;
42590;SDS011;28218;53.342;-6.216;2023-09-19T04:15:06;5.55;;;1.02;;
42590;SDS011;28218;53.342;-6.216;2023-09-19T04:17:41;6.38;;;1.20;;
42590;SDS011;28218;53.342;-6.216;2023-09-19T04:20:09;3.72;;;1.20;;
42590;SDS011;28218;53.342;-6.216;2023-09-19T04:22:38;5.85;;;1.55;;
42590;SDS011;28218;53.342;-6.216;2023-09-19T04:25:07;3.10;;;1.35;;
42590;SDS011;28218;53.342;-6.216;2023-09-19T04:27:35;2.95;;;1.27;;
42590;SDS011;28218;53.342;-6.216;2023-09-19T04:30:05;2.03;;;1.00;;
42590;SDS011;28218;53.342;-6.216;2023-09-19T04:32:37;4.53;;;1.10;;
42590;SDS011;28218;53.342;-6.216;2023-09-19T04:35:08;1.30;;;1.05;;
42590;SDS011;28218;53.342;-6.216;2023-09-19T04:37:38;2.90;;;1.00;;
42590;SDS011;28218;53.342;-6.216;2023-09-19T04:40:09;4.63;;;0.60;;
42590;SDS011;28218;53.342;-6.216;2023-09-19T04:42:40;5.93;;;0.95;;
42590;SDS011;28218;53.342;-6.216;2023-09-19T04:45:09;2.45;;;0.75;;
42590;SDS011;28218;53.342;-6.216;2023-09-19T04:47:38;3.28;;;1.20;;
42590;SDS011;28218;53.342;-6.216;2023-09-19T04:50:08;3.33;;;0.95;;
42590;SDS011;28218;53.342;-6.216;2023-09-19T04:52:40;0.82;;;0.68;;
42590;SDS011;28218;53.342;-6.216;2023-09-19T04:55:11;2.75;;;1.35;;
42590;SDS011;28218;53.342;-6.216;2023-09-19T04:57:44;2.97;;;0.68;;
42590;SDS011;28218;53.342;-6.216;2023-09-19T05:00:13;1.08;;;0.80;;
42590;SDS011;28218;53.342;-6.216;2023-09-19T05:02:44;2.70;;;0.82;;
42590;SDS011;28218;53.342;-6.216;2023-09-19T05:05:14;6.38;;;0.70;;
42590;SDS011;28218;53.342;-6.216;2023-09-19T05:07:43;2.55;;;0.70;;
42590;SDS011;28218;53.342;-6.216;2023-09-19T05:10:12;0.38;;;0.35;;
42590;SDS011;28218;53.342;-6.216;2023-09-19T05:12:41;4.43;;;0.70;;
42590;SDS011;28218;53.342;-6.216;2023-09-19T05:15:11;1.33;;;0.63;;
42590;SDS011;28218;53.342;-6.216;2023-09-19T05:17:41;3.95;;;0.70;;
42590;SDS011;28218;53.342;-6.216;2023-09-19T05:20:10;4.70;;;0.90;;
42590;SDS011;28218;53.342;-6.216;2023-09-19T05:25:10;1.75;;;0.60;;
42590;SDS011;28218;53.342;-6.216;2023-09-19T05:27:42;3.78;;;1.50;;
42590;SDS011;28218;53.342;-6.216;2023-09-19T05:30:11;0.82;;;0.70;;
42590;SDS011;28218;53.342;-6.216;2023-09-19T05:32:41;0.50;;;0.50;;
42590;SDS011;28218;53.342;-6.216;2023-09-19T05:35:10;1.90;;;0.60;;
42590;SDS011;28218;53.342;-6.216;2023-09-19T05:37:39;1.73;;;0.88;;
42590;SDS011;28218;53.342;-6.216;2023-09-19T05:40:09;1.63;;;0.65;;
42590;SDS011;28218;53.342;-6.216;2023-09-19T05:42:38;0.65;;;0.40;;
42590;SDS011;28218;53.342;-6.216;2023-09-19T05:45:08;1.27;;;0.40;;
42590;SDS011;28218;53.342;-6.216;2023-09-19T05:47:38;1.17;;;0.47;;
42590;SDS011;28218;53.342;-6.216;2023-09-19T05:50:11;0.93;;;0.60;;
42590;SDS011;28218;53.342;-6.216;2023-09-19T05:52:41;0.65;;;0.40;;
42590;SDS011;28218;53.342;-6.216;2023-09-19T05:55:13;0.40;;;0.30;;
42590;SDS011;28218;53.342;-6.216;2023-09-19T05:57:41;1.27;;;0.40;;
42590;SDS011;28218;53.342;-6.216;2023-09-19T06:00:10;1.48;;;0.35;;
42590;SDS011;28218;53.342;-6.216;2023-09-19T06:02:40;1.20;;;0.40;;
42590;SDS011;28218;53.342;-6.216;2023-09-19T06:05:11;1.27;;;0.45;;
42590;SDS011;28218;53.342;-6.216;2023-09-19T06:07:39;0.77;;;0.30;;
42590;SDS011;28218;53.342;-6.216;2023-09-19T06:10:08;0.47;;;0.40;;
42590;SDS011;28218;53.342;-6.216;2023-09-19T06:12:39;0.38;;;0.30;;
42590;SDS011;28218;53.342;-6.216;2023-09-19T06:15:07;0.28;;;0.28;;
42590;SDS011;28218;53.342;-6.216;2023-09-19T06:17:39;1.33;;;0.45;;
42590;SDS011;28218;53.342;-6.216;2023-09-19T06:20:07;0.30;;;0.30;;
42590;SDS011;28218;53.342;-6.216;2023-09-19T06:22:39;2.65;;;0.30;;
42590;SDS011;28218;53.342;-6.216;2023-09-19T06:25:09;1.38;;;0.50;;
42590;SDS011;28218;53.342;-6.216;2023-09-19T06:27:40;0.40;;;0.40;;
42590;SDS011;28218;53.342;-6.216;2023-09-19T06:30:09;0.63;;;0.37;;
42590;SDS011;28218;53.342;-6.216;2023-09-19T06:32:39;0.68;;;0.35;;
42590;SDS011;28218;53.342;-6.216;2023-09-19T06:35:10;0.10;;;0.10;;
42590;SDS011;28218;53.342;-6.216;2023-09-19T06:37:39;0.20;;;0.20;;
42590;SDS011;28218;53.342;-6.216;2023-09-19T06:40:09;0.32;;;0.10;;
42590;SDS011;28218;53.342;-6.216;2023-09-19T06:42:42;0.17;;;0.17;;
42590;SDS011;28218;53.342;-6.216;2023-09-19T06:45:11;0.30;;;0.30;;
42590;SDS011;28218;53.342;-6.216;2023-09-19T06:47:44;0.10;;;0.10;;
42590;SDS011;28218;53.342;-6.216;2023-09-19T06:50:16;0.13;;;0.10;;
42590;SDS011;28218;53.342;-6.216;2023-09-19T06:52:46;0.30;;;0.10;;
42590;SDS011;28218;53.342;-6.216;2023-09-19T06:55:17;0.20;;;0.10;;
42590;SDS011;28218;53.342;-6.216;2023-09-19T06:57:48;0.35;;;0.28;;
42590;SDS011;28218;53.342;-6.216;2023-09-19T07:00:16;0.00;;;0.00;;
42590;SDS011;28218;53.342;-6.216;2023-09-19T07:02:57;1.13;;;0.20;;
42590;SDS011;28218;53.342;-6.216;2023-09-19T07:05:28;0.20;;;0.20;;
42590;SDS011;28218;53.342;-6.216;2023-09-19T07:07:57;0.75;;;0.35;;
42590;SDS011;28218;53.342;-6.216;2023-09-19T07:10:27;0.13;;;0.13;;
42590;SDS011;28218;53.342;-6.216;2023-09-19T07:12:57;0.65;;;0.32;;
42590;SDS011;28218;53.342;-6.216;2023-09-19T07:15:26;0.10;;;0.10;;
42590;SDS011;28218;53.342;-6.216;2023-09-19T07:17:57;0.10;;;0.10;;
42590;SDS011;28218;53.342;-6.216;2023-09-19T07:20:26;1.70;;;0.20;;
42590;SDS011;28218;53.342;-6.216;2023-09-19T07:22:58;0.10;;;0.10;;
42590;SDS011;28218;53.342;-6.216;2023-09-19T07:25:27;0.20;;;0.10;;
42590;SDS011;28218;53.342;-6.216;2023-09-19T07:27:58;0.43;;;0.20;;
42590;SDS011;28218;53.342;-6.216;2023-09-19T07:30:27;1.58;;;0.20;;
42590;SDS011;28218;53.342;-6.216;2023-09-19T07:32:57;0.22;;;0.15;;
42590;SDS011;28218;53.342;-6.216;2023-09-19T07:35:25;0.20;;;0.20;;
42590;SDS011;28218;53.342;-6.216;2023-09-19T07:37:53;0.30;;;0.10;;
42590;SDS011;28218;53.342;-6.216;2023-09-19T07:40:23;0.20;;;0.20;;
42590;SDS011;28218;53.342;-6.216;2023-09-19T07:42:53;1.60;;;0.25;;
42590;SDS011;28218;53.342;-6.216;2023-09-19T07:45:23;0.65;;;0.20;;
42590;SDS011;28218;53.342;-6.216;2023-09-19T07:47:51;0.30;;;0.25;;
42590;SDS011;28218;53.342;-6.216;2023-09-19T07:50:20;0.52;;;0.30;;
42590;SDS011;28218;53.342;-6.216;2023-09-19T07:52:48;0.20;;;0.20;;
42590;SDS011;28218;53.342;-6.216;2023-09-19T07:55:19;0.38;;;0.10;;
42590;SDS011;28218;53.342;-6.216;2023-09-19T07:57:50;0.20;;;0.20;;
42590;SDS011;28218;53.342;-6.216;2023-09-19T08:00:19;1.98;;;0.20;;
42590;SDS011;28218;53.342;-6.216;2023-09-19T08:02:49;0.47;;;0.20;;
42590;SDS011;28218;53.342;-6.216;2023-09-19T08:05:26;0.43;;;0.30;;
42590;SDS011;28218;53.342;-6.216;2023-09-19T08:07:55;0.20;;;0.20;;
42590;SDS011;28218;53.342;-6.216;2023-09-19T08:10:25;0.63;;;0.25;;
42590;SDS011;28218;53.342;-6.216;2023-09-19T08:12:54;0.30;;;0.20;;
42590;SDS011;28218;53.342;-6.216;2023-09-19T08:15:25;0.13;;;0.13;;
42590;SDS011;28218;53.342;-6.216;2023-09-19T08:17:55;0.80;;;0.20;;
42590;SDS011;28218;53.342;-6.216;2023-09-19T08:20:24;0.98;;;0.35;;
42590;SDS011;28218;53.342;-6.216;2023-09-19T08:22:53;0.10;;;0.10;;
42590;SDS011;28218;53.342;-6.216;2023-09-19T08:25:22;0.55;;;0.40;;
42590;SDS011;28218;53.342;-6.216;2023-09-19T08:27:52;0.28;;;0.28;;
42590;SDS011;28218;53.342;-6.216;2023-09-19T08:30:20;0.52;;;0.38;;
42590;SDS011;28218;53.342;-6.216;2023-09-19T08:35:26;2.30;;;0.30;;
42590;SDS011;28218;53.342;-6.216;2023-09-19T08:37:55;0.47;;;0.20;;
42590;SDS011;28218;53.342;-6.216;2023-09-19T08:40:24;0.28;;;0.28;;
42590;SDS011;28218;53.342;-6.216;2023-09-19T08:42:57;0.40;;;0.40;;
42590;SDS011;28218;53.342;-6.216;2023-09-19T08:45:25;0.30;;;0.30;;
42590;SDS011;28218;53.342;-6.216;2023-09-19T08:47:56;3.22;;;0.38;;
42590;SDS011;28218;53.342;-6.216;2023-09-19T08:50:40;0.50;;;0.30;;
42590;SDS011;28218;53.342;-6.216;2023-09-19T08:53:15;0.40;;;0.30;;
42590;SDS011;28218;53.342;-6.216;2023-09-19T08:55:50;1.55;;;0.30;;
42590;SDS011;28218;53.342;-6.216;2023-09-19T08:58:25;0.40;;;0.40;;
42590;SDS011;28218;53.342;-6.216;2023-09-19T09:01:00;0.73;;;0.30;;
42590;SDS011;28218;53.342;-6.216;2023-09-19T09:03:30;1.25;;;0.25;;
42590;SDS011;28218;53.342;-6.216;2023-09-19T09:06:02;0.20;;;0.20;;
42590;SDS011;28218;53.342;-6.216;2023-09-19T09:08:31;0.85;;;0.40;;
42590;SDS011;28218;53.342;-6.216;2023-09-19T09:11:00;0.45;;;0.30;;
42590;SDS011;28218;53.342;-6.216;2023-09-19T09:13:29;0.30;;;0.30;;
42590;SDS011;28218;53.342;-6.216;2023-09-19T09:15:59;1.10;;;0.32;;
42590;SDS011;28218;53.342;-6.216;2023-09-19T09:18:28;0.30;;;0.30;;
42590;SDS011;28218;53.342;-6.216;2023-09-19T09:20:57;0.13;;;0.13;;
42590;SDS011;28218;53.342;-6.216;2023-09-19T09:23:27;0.20;;;0.20;;
42590;SDS011;28218;53.342;-6.216;2023-09-19T09:25:56;1.50;;;0.40;;
42590;SDS011;28218;53.342;-6.216;2023-09-19T09:28:26;0.45;;;0.30;;
42590;SDS011;28218;53.342;-6.216;2023-09-19T09:30:56;0.32;;;0.20;;
42590;SDS011;28218;53.342;-6.216;2023-09-19T09:33:25;0.10;;;0.10;;
42590;SDS011;28218;53.342;-6.216;2023-09-19T09:35:55;0.95;;;0.40;;
42590;SDS011;28218;53.342;-6.216;2023-09-19T09:38:28;0.50;;;0.50;;
42590;SDS011;28218;53.342;-6.216;2023-09-19T09:40:59;0.77;;;0.73;;
42590;SDS011;28218;53.342;-6.216;2023-09-19T09:43:35;0.32;;;0.32;;
42590;SDS011;28218;53.342;-6.216;2023-09-19T09:46:06;0.22;;;0.22;;
42590;SDS011;28218;53.342;-6.216;2023-09-19T09:48:56;0.55;;;0.40;;
42590;SDS011;28218;53.342;-6.216;2023-09-19T09:51:40;0.20;;;0.20;;
42590;SDS011;28218;53.342;-6.216;2023-09-19T09:54:11;0.68;;;0.43;;
42590;SDS011;28218;53.342;-6.216;2023-09-19T09:56:56;0.40;;;0.40;;
42590;SDS011;28218;53.342;-6.216;2023-09-19T09:59:43;0.30;;;0.30;;
42590;SDS011;28218;53.342;-6.216;2023-09-19T10:02:18;1.58;;;0.57;;
42590;SDS011;28218;53.342;-6.216;2023-09-19T10:04:56;0.28;;;0.28;;
42590;SDS011;28218;53.342;-6.216;2023-09-19T10:07:36;3.60;;;1.63;;
42590;SDS011;28218;53.342;-6.216;2023-09-19T10:10:11;0.40;;;0.30;;
42590;SDS011;28218;53.342;-6.216;2023-09-19T10:12:44;0.47;;;0.45;;
42590;SDS011;28218;53.342;-6.216;2023-09-19T10:15:15;1.73;;;0.93;;
42590;SDS011;28218;53.342;-6.216;2023-09-19T10:17:47;0.35;;;0.30;;
42590;SDS011;28218;53.342;-6.216;2023-09-19T10:20:16;0.47;;;0.32;;
42590;SDS011;28218;53.342;-6.216;2023-09-19T10:23:05;3.63;;;0.40;;
42590;SDS011;28218;53.342;-6.216;2023-09-19T10:25:39;0.10;;;0.10;;
42590;SDS011;28218;53.342;-6.216;2023-09-19T10:28:08;0.65;;;0.30;;
42590;SDS011;28218;53.342;-6.216;2023-09-19T10:30:41;0.90;;;0.35;;
42590;SDS011;28218;53.342;-6.216;2023-09-19T10:33:12;0.75;;;0.32;;
42590;SDS011;28218;53.342;-6.216;2023-09-19T10:35:42;0.30;;;0.30;;
42590;SDS011;28218;53.342;-6.216;2023-09-19T10:38:11;0.32;;;0.20;;
42590;SDS011;28218;53.342;-6.216;2023-09-19T10:40:48;0.30;;;0.30;;
42590;SDS011;28218;53.342;-6.216;2023-09-19T10:43:19;0.57;;;0.35;;
42590;SDS011;28218;53.342;-6.216;2023-09-19T10:45:49;3.90;;;0.57;;
42590;SDS011;28218;53.342;-6.216;2023-09-19T10:51:04;0.20;;;0.20;;
42590;SDS011;28218;53.342;-6.216;2023-09-19T10:53:41;1.15;;;0.20;;
42590;SDS011;28218;53.342;-6.216;2023-09-19T10:56:18;0.20;;;0.20;;
42590;SDS011;28218;53.342;-6.216;2023-09-19T10:58:51;0.20;;;0.20;;
42590;SDS011;28218;53.342;-6.216;2023-09-19T11:01:19;0.30;;;0.30;;
42590;SDS011;28218;53.342;-6.216;2023-09-19T11:03:49;0.52;;;0.20;;
42590;SDS011;28218;53.342;-6.216;2023-09-19T11:07:00;0.35;;;0.20;;
42590;SDS011;28218;53.342;-6.216;2023-09-19T11:09:44;0.22;;;0.20;;
42590;SDS011;28218;53.342;-6.216;2023-09-19T11:21:41;1.45;;;0.90;;
42590;SDS011;28218;53.342;-6.216;2023-09-19T11:24:28;0.55;;;0.25;;
42590;SDS011;28218;53.342;-6.216;2023-09-19T11:27:13;0.35;;;0.30;;
42590;SDS011;28218;53.342;-6.216;2023-09-19T11:29:44;1.15;;;0.22;;
42590;SDS011;28218;53.342;-6.216;2023-09-19T11:32:13;2.47;;;0.40;;
42590;SDS011;28218;53.342;-6.216;2023-09-19T11:34:46;0.55;;;0.55;;
42590;SDS011;28218;53.342;-6.216;2023-09-19T11:40:38;2.95;;;0.57;;
42590;SDS011;28218;53.342;-6.216;2023-09-19T11:46:05;2.08;;;0.30;;
42590;SDS011;28218;53.342;-6.216;2023-09-19T11:48:40;0.60;;;0.60;;
42590;SDS011;28218;53.342;-6.216;2023-09-19T11:51:15;0.40;;;0.40;;
42590;SDS011;28218;53.342;-6.216;2023-09-19T11:53:51;0.63;;;0.30;;
42590;SDS011;28218;53.342;-6.216;2023-09-19T11:56:20;2.42;;;0.45;;
42590;SDS011;28218;53.342;-6.216;2023-09-19T11:58:51;0.30;;;0.30;;
42590;SDS011;28218;53.342;-6.216;2023-09-19T12:01:22;0.63;;;0.38;;
42590;SDS011;28218;53.342;-6.216;2023-09-19T12:03:56;1.45;;;0.35;;
42590;SDS011;28218;53.342;-6.216;2023-09-19T12:06:28;0.90;;;0.52;;
42590;SDS011;28218;53.342;-6.216;2023-09-19T12:08:59;0.55;;;0.30;;
42590;SDS011;28218;53.342;-6.216;2023-09-19T12:11:29;0.73;;;0.50;;
42590;SDS011;28218;53.342;-6.216;2023-09-19T12:14:02;0.43;;;0.30;;
42590;SDS011;28218;53.342;-6.216;2023-09-19T12:16:31;0.30;;;0.30;;
42590;SDS011;28218;53.342;-6.216;2023-09-19T12:21:57;0.55;;;0.40;;
42590;SDS011;28218;53.342;-6.216;2023-09-19T12:26:59;1.02;;;0.55;;
42590;SDS011;28218;53.342;-6.216;2023-09-19T12:29:31;0.80;;;0.22;;
42590;SDS011;28218;53.342;-6.216;2023-09-19T12:32:09;0.40;;;0.40;;
42590;SDS011;28218;53.342;-6.216;2023-09-19T12:34:37;2.45;;;0.40;;
42590;SDS011;28218;53.342;-6.216;2023-09-19T12:37:11;0.30;;;0.30;;
42590;SDS011;28218;53.342;-6.216;2023-09-19T12:39:43;0.70;;;0.30;;
42590;SDS011;28218;53.342;-6.216;2023-09-19T12:42:15;2.17;;;0.52;;
42590;SDS011;28218;53.342;-6.216;2023-09-19T12:44:44;1.08;;;0.30;;
42590;SDS011;28218;53.342;-6.216;2023-09-19T12:47:14;1.63;;;0.50;;
42590;SDS011;28218;53.342;-6.216;2023-09-19T12:52:42;1.45;;;0.60;;
42590;SDS011;28218;53.342;-6.216;2023-09-19T12:55:20;1.75;;;0.60;;
42590;SDS011;28218;53.342;-6.216;2023-09-19T12:57:57;1.52;;;0.47;;
42590;SDS011;28218;53.342;-6.216;2023-09-19T13:00:33;2.58;;;0.80;;
42590;SDS011;28218;53.342;-6.216;2023-09-19T13:03:12;1.58;;;0.80;;
42590;SDS011;28218;53.342;-6.216;2023-09-19T13:05:49;5.85;;;2.50;;
42590;SDS011;28218;53.342;-6.216;2023-09-19T13:08:20;0.73;;;0.50;;
42590;SDS011;28218;53.342;-6.216;2023-09-19T13:11:00;0.75;;;0.50;;
42590;SDS011;28218;53.342;-6.216;2023-09-19T13:13:33;0.73;;;0.50;;
42590;SDS011;28218;53.342;-6.216;2023-09-19T13:16:03;0.40;;;0.30;;
42590;SDS011;28218;53.342;-6.216;2023-09-19T13:18:48;0.50;;;0.50;;
42590;SDS011;28218;53.342;-6.216;2023-09-19T13:21:27;1.50;;;0.22;;
42590;SDS011;28218;53.342;-6.216;2023-09-19T13:26:47;2.15;;;1.50;;
42590;SDS011;28218;53.342;-6.216;2023-09-19T13:29:16;2.05;;;0.68;;
42590;SDS011;28218;53.342;-6.216;2023-09-19T13:31:45;0.57;;;0.30;;
42590;SDS011;28218;53.342;-6.216;2023-09-19T13:34:14;0.80;;;0.40;;
42590;SDS011;28218;53.342;-6.216;2023-09-19T13:36:44;1.13;;;0.98;;
42590;SDS011;28218;53.342;-6.216;2023-09-19T13:39:15;0.30;;;0.30;;
42590;SDS011;28218;53.342;-6.216;2023-09-19T13:41:45;0.30;;;0.30;;
42590;SDS011;28218;53.342;-6.216;2023-09-19T13:46:43;0.40;;;0.40;;
42590;SDS011;28218;53.342;-6.216;2023-09-19T13:49:13;1.90;;;0.40;;
42590;SDS011;28218;53.342;-6.216;2023-09-19T13:51:42;2.15;;;0.60;;
42590;SDS011;28218;53.342;-6.216;2023-09-19T13:54:11;0.40;;;0.40;;
42590;SDS011;28218;53.342;-6.216;2023-09-19T13:56:41;0.60;;;0.60;;
42590;SDS011;28218;53.342;-6.216;2023-09-19T13:59:10;1.02;;;0.70;;
42590;SDS011;28218;53.342;-6.216;2023-09-19T14:01:38;0.75;;;0.60;;
42590;SDS011;28218;53.342;-6.216;2023-09-19T14:04:08;2.78;;;0.77;;
42590;SDS011;28218;53.342;-6.216;2023-09-19T14:06:41;0.50;;;0.50;;
42590;SDS011;28218;53.342;-6.216;2023-09-19T14:09:09;2.40;;;0.90;;
42590;SDS011;28218;53.342;-6.216;2023-09-19T14:11:38;2.10;;;0.60;;
42590;SDS011;28218;53.342;-6.216;2023-09-19T14:14:06;2.13;;;0.55;;
42590;SDS011;28218;53.342;-6.216;2023-09-19T14:16:36;1.90;;;0.70;;
42590;SDS011;28218;53.342;-6.216;2023-09-19T14:19:06;0.90;;;0.45;;
42590;SDS011;28218;53.342;-6.216;2023-09-19T14:21:34;2.45;;;0.80;;
42590;SDS011;28218;53.342;-6.216;2023-09-19T14:26:36;2.20;;;0.77;;
42590;SDS011;28218;53.342;-6.216;2023-09-19T14:29:04;2.15;;;1.05;;
42590;SDS011;28218;53.342;-6.216;2023-09-19T14:31:36;4.55;;;1.00;;
42590;SDS011;28218;53.342;-6.216;2023-09-19T14:34:06;2.75;;;0.63;;
42590;SDS011;28218;53.342;-6.216;2023-09-19T14:36:36;4.88;;;1.50;;
42590;SDS011;28218;53.342;-6.216;2023-09-19T14:39:05;4.05;;;1.70;;
42590;SDS011;28218;53.342;-6.216;2023-09-19T14:41:34;7.50;;;2.67;;
42590;SDS011;28218;53.342;-6.216;2023-09-19T14:44:03;6.18;;;1.70;;
42590;SDS011;28218;53.342;-6.216;2023-09-19T14:46:32;8.15;;;1.98;;
42590;SDS011;28218;53.342;-6.216;2023-09-19T14:49:01;4.30;;;1.73;;
42590;SDS011;28218;53.342;-6.216;2023-09-19T14:51:31;5.30;;;1.77;;
42590;SDS011;28218;53.342;-6.216;2023-09-19T14:53:59;6.93;;;1.98;;
42590;SDS011;28218;53.342;-6.216;2023-09-19T14:56:29;10.95;;;2.40;;
42590;SDS011;28218;53.342;-6.216;2023-09-19T14:58:57;10.77;;;3.00;;
42590;SDS011;28218;53.342;-6.216;2023-09-19T15:01:26;10.02;;;2.72;;
42590;SDS011;28218;53.342;-6.216;2023-09-19T15:03:55;11.68;;;2.42;;
42590;SDS011;28218;53.342;-6.216;2023-09-19T15:06:25;12.10;;;2.35;;
42590;SDS011;28218;53.342;-6.216;2023-09-19T15:08:54;10.93;;;3.08;;
42590;SDS011;28218;53.342;-6.216;2023-09-19T15:11:22;7.95;;;2.25;;
42590;SDS011;28218;53.342;-6.216;2023-09-19T15:13:51;9.45;;;2.28;;
42590;SDS011;28218;53.342;-6.216;2023-09-19T15:16:20;7.30;;;2.20;;
42590;SDS011;28218;53.342;-6.216;2023-09-19T15:18:48;9.02;;;2.47;;
42590;SDS011;28218;53.342;-6.216;2023-09-19T15:21:18;9.32;;;2.25;;
42590;SDS011;28218;53.342;-6.216;2023-09-19T15:23:48;12.02;;;3.47;;
42590;SDS011;28218;53.342;-6.216;2023-09-19T15:26:16;10.82;;;3.00;;
42590;SDS011;28218;53.342;-6.216;2023-09-19T15:28:47;8.43;;;2.77;;
42590;SDS011;28218;53.342;-6.216;2023-09-19T15:31:16;7.70;;;2.33;;
42590;SDS011;28218;53.342;-6.216;2023-09-19T15:33:44;8.52;;;3.05;;
42590;SDS011;28218;53.342;-6.216;2023-09-19T15:36:15;8.95;;;2.75;;